sensor_id;sensor_type;location;lat;lon;timestamp;pressure;altitude;pressure_sealevel;temperature;humidity
52032;BME280;38044;45.148;39.604;2022-12-18T00:01:04;101730.38;;;4.59;89.56
52032;BME280;38044;45.148;39.604;2022-12-18T00:03:33;101697.56;;;4.47;89.13
52032;BME280;38044;45.148;39.604;2022-12-18T00:05:59;101699.59;;;4.45;88.71
52032;BME280;38044;45.148;39.604;2022-12-18T00:08:25;101613.19;;;3.92;88.00
52032;BME280;38044;45.148;39.604;2022-12-18T00:10:51;101629.06;;;3.99;88.23
52032;BME280;38044;45.148;39.604;2022-12-18T00:13:17;101715.59;;;4.45;88.12
52032;BME280;38044;45.148;39.604;2022-12-18T00:15:42;101565.38;;;3.42;88.39
52032;BME280;38044;45.148;39.604;2022-12-18T00:18:09;101694.56;;;4.18;88.72
52032;BME280;38044;45.148;39.604;2022-12-18T00:20:39;101717.13;;;4.34;89.27
52032;BME280;38044;45.148;39.604;2022-12-18T00:23:06;101711.00;;;4.34;89.41
52032;BME280;38044;45.148;39.604;2022-12-18T00:25:33;101538.97;;;3.22;89.08
52032;BME280;38044;45.148;39.604;2022-12-18T00:28:00;101670.00;;;3.98;88.88
52032;BME280;38044;45.148;39.604;2022-12-18T00:30:26;101707.88;;;4.18;88.90
52032;BME280;38044;45.148;39.604;2022-12-18T00:32:52;101594.69;;;3.35;88.84
52032;BME280;38044;45.148;39.604;2022-12-18T00:35:18;101581.91;;;3.19;89.24
52032;BME280;38044;45.148;39.604;2022-12-18T00:37:44;101715.81;;;4.00;89.84
52032;BME280;38044;45.148;39.604;2022-12-18T00:40:10;101701.50;;;4.01;89.99
52032;BME280;38044;45.148;39.604;2022-12-18T00:42:36;101717.31;;;4.14;89.90
52032;BME280;38044;45.148;39.604;2022-12-18T00:45:20;101670.28;;;3.90;90.09
52032;BME280;38044;45.148;39.604;2022-12-18T00:47:45;101677.75;;;3.99;89.80
52032;BME280;38044;45.148;39.604;2022-12-18T00:50:12;101716.34;;;4.09;89.39
52032;BME280;38044;45.148;39.604;2022-12-18T00:52:38;101584.63;;;3.12;88.79
52032;BME280;38044;45.148;39.604;2022-12-18T00:55:04;101695.97;;;3.77;88.99
52032;BME280;38044;45.148;39.604;2022-12-18T00:57:29;101731.84;;;3.93;89.58
52032;BME280;38044;45.148;39.604;2022-12-18T00:59:55;101697.09;;;3.88;89.77
52032;BME280;38044;45.148;39.604;2022-12-18T01:02:21;101710.81;;;4.10;89.90
52032;BME280;38044;45.148;39.604;2022-12-18T01:04:47;101523.81;;;3.04;89.56
52032;BME280;38044;45.148;39.604;2022-12-18T01:07:12;101700.47;;;4.20;89.10
52032;BME280;38044;45.148;39.604;2022-12-18T01:09:38;101700.25;;;4.03;88.76
52032;BME280;38044;45.148;39.604;2022-12-18T01:12:04;101667.47;;;3.84;87.84
52032;BME280;38044;45.148;39.604;2022-12-18T01:14:30;101680.34;;;3.88;87.56
52032;BME280;38044;45.148;39.604;2022-12-18T01:16:56;101681.81;;;3.83;87.40
52032;BME280;38044;45.148;39.604;2022-12-18T01:19:22;101719.09;;;4.02;87.47
52032;BME280;38044;45.148;39.604;2022-12-18T01:21:49;101702.22;;;3.90;87.85
52032;BME280;38044;45.148;39.604;2022-12-18T01:24:15;101714.63;;;3.96;87.76
52032;BME280;38044;45.148;39.604;2022-12-18T01:26:41;101717.50;;;3.94;87.74
52032;BME280;38044;45.148;39.604;2022-12-18T01:29:06;101712.63;;;3.91;88.25
52032;BME280;38044;45.148;39.604;2022-12-18T01:31:33;101722.34;;;4.04;88.59
52032;BME280;38044;45.148;39.604;2022-12-18T01:34:04;101552.91;;;2.92;88.26
52032;BME280;38044;45.148;39.604;2022-12-18T01:36:32;101546.06;;;2.78;87.65
52032;BME280;38044;45.148;39.604;2022-12-18T01:39:04;101611.91;;;3.01;87.26
52032;BME280;38044;45.148;39.604;2022-12-18T01:41:31;101719.59;;;3.67;87.71
52032;BME280;38044;45.148;39.604;2022-12-18T01:44:56;101726.63;;;3.80;87.99
52032;BME280;38044;45.148;39.604;2022-12-18T01:47:32;101727.13;;;3.70;88.08
52032;BME280;38044;45.148;39.604;2022-12-18T01:52:53;101562.50;;;2.62;88.51
52032;BME280;38044;45.148;39.604;2022-12-18T01:55:22;101581.78;;;2.82;88.55
52032;BME280;38044;45.148;39.604;2022-12-18T01:57:52;101704.94;;;3.58;88.30
52032;BME280;38044;45.148;39.604;2022-12-18T02:00:21;101605.38;;;2.97;88.61
52032;BME280;38044;45.148;39.604;2022-12-18T02:02:47;101677.03;;;3.42;88.57
52032;BME280;38044;45.148;39.604;2022-12-18T02:05:17;101724.19;;;3.78;88.42
52032;BME280;38044;45.148;39.604;2022-12-18T02:18:41;101649.19;;;3.45;87.47
52032;BME280;38044;45.148;39.604;2022-12-18T02:21:20;101673.47;;;3.55;87.40
52032;BME280;38044;45.148;39.604;2022-12-18T02:26:38;101706.91;;;3.63;87.55
52032;BME280;38044;45.148;39.604;2022-12-18T02:29:16;101717.63;;;3.56;87.80
52032;BME280;38044;45.148;39.604;2022-12-18T02:31:47;101646.13;;;3.16;87.93
52032;BME280;38044;45.148;39.604;2022-12-18T02:34:16;101712.47;;;3.61;88.07
52032;BME280;38044;45.148;39.604;2022-12-18T02:36:44;101559.47;;;2.58;87.89
52032;BME280;38044;45.148;39.604;2022-12-18T02:39:12;101695.69;;;3.35;87.58
52032;BME280;38044;45.148;39.604;2022-12-18T02:41:39;101577.38;;;2.63;87.91
52032;BME280;38044;45.148;39.604;2022-12-18T02:44:11;101573.78;;;2.51;88.09
52032;BME280;38044;45.148;39.604;2022-12-18T02:46:48;101592.88;;;2.73;88.63
52032;BME280;38044;45.148;39.604;2022-12-18T02:54:26;101711.38;;;3.44;88.21
52032;BME280;38044;45.148;39.604;2022-12-18T02:57:06;101711.69;;;3.54;88.31
52032;BME280;38044;45.148;39.604;2022-12-18T03:00:00;101716.56;;;3.64;88.57
52032;BME280;38044;45.148;39.604;2022-12-18T03:05:16;101603.81;;;2.89;87.64
52032;BME280;38044;45.148;39.604;2022-12-18T03:08:15;101715.41;;;3.53;87.61
52032;BME280;38044;45.148;39.604;2022-12-18T03:10:48;101610.09;;;2.57;87.04
52032;BME280;38044;45.148;39.604;2022-12-18T03:13:30;101566.06;;;2.42;87.50
52032;BME280;38044;45.148;39.604;2022-12-18T03:15:59;101526.78;;;2.19;87.66
52032;BME280;38044;45.148;39.604;2022-12-18T03:18:30;101703.53;;;3.24;87.79
52032;BME280;38044;45.148;39.604;2022-12-18T03:21:04;101662.00;;;2.98;87.42
52032;BME280;38044;45.148;39.604;2022-12-18T03:23:36;101665.03;;;2.94;87.43
52032;BME280;38044;45.148;39.604;2022-12-18T03:26:07;101649.88;;;2.70;87.45
52032;BME280;38044;45.148;39.604;2022-12-18T03:28:40;101695.09;;;2.95;88.05
52032;BME280;38044;45.148;39.604;2022-12-18T03:31:10;101703.03;;;3.02;88.04
52032;BME280;38044;45.148;39.604;2022-12-18T03:36:08;101713.22;;;3.05;88.02
52032;BME280;38044;45.148;39.604;2022-12-18T03:38:34;101617.09;;;2.44;88.13
52032;BME280;38044;45.148;39.604;2022-12-18T03:43:57;101727.16;;;2.93;87.48
52032;BME280;38044;45.148;39.604;2022-12-18T03:49:25;101709.69;;;2.73;88.70
52032;BME280;38044;45.148;39.604;2022-12-18T03:54:27;101701.50;;;2.81;88.95
52032;BME280;38044;45.148;39.604;2022-12-18T03:56:59;101497.25;;;1.57;88.00
52032;BME280;38044;45.148;39.604;2022-12-18T03:59:27;101739.19;;;3.03;88.04
52032;BME280;38044;45.148;39.604;2022-12-18T04:01:56;101740.03;;;2.97;87.83
52032;BME280;38044;45.148;39.604;2022-12-18T04:04:24;101686.47;;;2.61;87.66
52032;BME280;38044;45.148;39.604;2022-12-18T04:06:50;101765.63;;;2.84;87.72
52032;BME280;38044;45.148;39.604;2022-12-18T04:09:18;101739.09;;;2.78;87.85
52032;BME280;38044;45.148;39.604;2022-12-18T04:11:46;101738.44;;;2.82;88.21
52032;BME280;38044;45.148;39.604;2022-12-18T04:14:12;101723.19;;;2.71;88.23
52032;BME280;38044;45.148;39.604;2022-12-18T04:16:38;101750.66;;;2.97;88.53
52032;BME280;38044;45.148;39.604;2022-12-18T04:19:04;101740.66;;;2.99;88.59
52032;BME280;38044;45.148;39.604;2022-12-18T04:21:30;101748.81;;;3.04;88.60
52032;BME280;38044;45.148;39.604;2022-12-18T04:23:57;101747.16;;;3.03;88.43
52032;BME280;38044;45.148;39.604;2022-12-18T04:26:23;101708.91;;;2.72;88.29
52032;BME280;38044;45.148;39.604;2022-12-18T04:28:49;101746.38;;;2.96;88.12
52032;BME280;38044;45.148;39.604;2022-12-18T04:31:15;101599.31;;;1.93;87.65
52032;BME280;38044;45.148;39.604;2022-12-18T04:33:41;101769.47;;;2.88;87.87
52032;BME280;38044;45.148;39.604;2022-12-18T04:36:07;101761.50;;;2.88;88.11
52032;BME280;38044;45.148;39.604;2022-12-18T04:38:33;101761.16;;;2.78;88.02
52032;BME280;38044;45.148;39.604;2022-12-18T04:40:59;101758.19;;;3.00;88.39
52032;BME280;38044;45.148;39.604;2022-12-18T04:43:24;101740.41;;;3.00;88.37
52032;BME280;38044;45.148;39.604;2022-12-18T04:45:50;101745.97;;;2.99;88.37
52032;BME280;38044;45.148;39.604;2022-12-18T04:48:16;101761.91;;;2.99;88.35
52032;BME280;38044;45.148;39.604;2022-12-18T04:50:42;101714.19;;;2.72;87.90
52032;BME280;38044;45.148;39.604;2022-12-18T04:53:08;101616.03;;;2.00;87.73
52032;BME280;38044;45.148;39.604;2022-12-18T04:55:34;101730.88;;;2.86;88.32
52032;BME280;38044;45.148;39.604;2022-12-18T04:57:59;101725.19;;;2.82;88.29
52032;BME280;38044;45.148;39.604;2022-12-18T05:00:25;101613.75;;;2.11;87.84
52032;BME280;38044;45.148;39.604;2022-12-18T05:02:51;101739.88;;;2.85;87.92
52032;BME280;38044;45.148;39.604;2022-12-18T05:05:17;101726.22;;;2.81;87.85
52032;BME280;38044;45.148;39.604;2022-12-18T05:07:43;101739.03;;;2.98;87.66
52032;BME280;38044;45.148;39.604;2022-12-18T05:10:09;101721.81;;;3.00;87.79
52032;BME280;38044;45.148;39.604;2022-12-18T05:12:35;101680.88;;;2.76;87.78
52032;BME280;38044;45.148;39.604;2022-12-18T05:15:22;101764.06;;;3.15;87.78
52032;BME280;38044;45.148;39.604;2022-12-18T05:17:47;101752.47;;;3.03;87.48
52032;BME280;38044;45.148;39.604;2022-12-18T05:20:15;101703.06;;;2.95;88.15
52032;BME280;38044;45.148;39.604;2022-12-18T05:22:41;101733.78;;;3.54;88.41
52032;BME280;38044;45.148;39.604;2022-12-18T05:25:07;101745.06;;;3.75;88.29
52032;BME280;38044;45.148;39.604;2022-12-18T05:27:33;101736.81;;;3.90;87.70
52032;BME280;38044;45.148;39.604;2022-12-18T05:29:59;101720.88;;;3.83;87.40
52032;BME280;38044;45.148;39.604;2022-12-18T05:32:25;101751.00;;;4.02;86.79
52032;BME280;38044;45.148;39.604;2022-12-18T05:34:50;101761.22;;;4.48;87.01
52032;BME280;38044;45.148;39.604;2022-12-18T05:37:16;101743.50;;;4.61;86.77
52032;BME280;38044;45.148;39.604;2022-12-18T05:39:43;101628.03;;;4.00;86.28
52032;BME280;38044;45.148;39.604;2022-12-18T05:42:09;101656.13;;;4.51;85.74
52032;BME280;38044;45.148;39.604;2022-12-18T05:44:35;101608.97;;;4.70;85.18
52032;BME280;38044;45.148;39.604;2022-12-18T05:47:01;101750.97;;;6.03;84.29
52032;BME280;38044;45.148;39.604;2022-12-18T05:49:27;101726.53;;;6.70;82.92
52032;BME280;38044;45.148;39.604;2022-12-18T05:51:52;101704.34;;;7.43;80.82
52032;BME280;38044;45.148;39.604;2022-12-18T05:54:18;101773.91;;;8.40;77.45
52032;BME280;38044;45.148;39.604;2022-12-18T05:56:44;101758.09;;;8.60;75.06
52032;BME280;38044;45.148;39.604;2022-12-18T05:59:10;101787.72;;;8.92;72.81
52032;BME280;38044;45.148;39.604;2022-12-18T06:01:36;101783.44;;;9.40;73.14
52032;BME280;38044;45.148;39.604;2022-12-18T06:04:01;101777.25;;;9.67;71.75
52032;BME280;38044;45.148;39.604;2022-12-18T06:06:28;101693.13;;;9.56;70.62
52032;BME280;38044;45.148;39.604;2022-12-18T06:08:55;101780.78;;;10.37;69.70
52032;BME280;38044;45.148;39.604;2022-12-18T06:11:24;101775.25;;;10.17;68.21
52032;BME280;38044;45.148;39.604;2022-12-18T06:13:52;101600.81;;;8.66;68.35
52032;BME280;38044;45.148;39.604;2022-12-18T06:16:18;101766.50;;;9.13;69.19
52032;BME280;38044;45.148;39.604;2022-12-18T06:18:44;101788.16;;;8.62;70.09
52032;BME280;38044;45.148;39.604;2022-12-18T06:21:10;101747.91;;;8.40;71.46
52032;BME280;38044;45.148;39.604;2022-12-18T06:23:35;101682.31;;;8.43;71.39
52032;BME280;38044;45.148;39.604;2022-12-18T06:26:06;101644.84;;;8.97;68.91
52032;BME280;38044;45.148;39.604;2022-12-18T06:28:32;101625.31;;;9.01;68.49
52032;BME280;38044;45.148;39.604;2022-12-18T06:30:58;101742.91;;;10.06;68.01
52032;BME280;38044;45.148;39.604;2022-12-18T06:33:26;101674.00;;;11.00;66.22
52032;BME280;38044;45.148;39.604;2022-12-18T06:35:53;101760.06;;;12.74;62.87
52032;BME280;38044;45.148;39.604;2022-12-18T06:38:19;101770.22;;;13.82;60.31
52032;BME280;38044;45.148;39.604;2022-12-18T06:40:45;101772.81;;;14.50;57.48
52032;BME280;38044;45.148;39.604;2022-12-18T06:43:11;101690.13;;;14.20;56.23
52032;BME280;38044;45.148;39.604;2022-12-18T06:45:37;101776.81;;;14.82;56.65
52032;BME280;38044;45.148;39.604;2022-12-18T06:48:04;101779.69;;;14.67;55.96
52032;BME280;38044;45.148;39.604;2022-12-18T06:50:30;101769.38;;;14.93;55.84
52032;BME280;38044;45.148;39.604;2022-12-18T06:52:56;101768.69;;;14.82;54.99
52032;BME280;38044;45.148;39.604;2022-12-18T06:55:22;101754.16;;;14.54;55.37
52032;BME280;38044;45.148;39.604;2022-12-18T06:57:47;101772.44;;;14.86;55.87
52032;BME280;38044;45.148;39.604;2022-12-18T07:00:14;101775.78;;;15.40;54.60
52032;BME280;38044;45.148;39.604;2022-12-18T07:02:39;101782.97;;;15.82;53.75
52032;BME280;38044;45.148;39.604;2022-12-18T07:05:06;101778.38;;;15.83;53.37
52032;BME280;38044;45.148;39.604;2022-12-18T07:07:33;101767.41;;;15.55;54.05
52032;BME280;38044;45.148;39.604;2022-12-18T07:09:59;101700.94;;;14.44;54.34
52032;BME280;38044;45.148;39.604;2022-12-18T07:12:27;101780.34;;;14.29;55.94
52032;BME280;38044;45.148;39.604;2022-12-18T07:14:53;101795.81;;;13.60;57.55
52032;BME280;38044;45.148;39.604;2022-12-18T07:17:18;101791.25;;;12.96;58.98
52032;BME280;38044;45.148;39.604;2022-12-18T07:19:44;101785.94;;;12.85;59.59
52032;BME280;38044;45.148;39.604;2022-12-18T07:22:10;101704.69;;;12.12;60.02
52032;BME280;38044;45.148;39.604;2022-12-18T07:24:36;101773.38;;;12.40;60.64
52032;BME280;38044;45.148;39.604;2022-12-18T07:27:02;101758.59;;;12.17;61.04
52032;BME280;38044;45.148;39.604;2022-12-18T07:29:28;101783.41;;;12.09;61.93
52032;BME280;38044;45.148;39.604;2022-12-18T07:31:54;101784.47;;;11.72;62.69
52032;BME280;38044;45.148;39.604;2022-12-18T07:34:20;101647.47;;;10.41;63.79
52032;BME280;38044;45.148;39.604;2022-12-18T07:36:45;101777.78;;;10.86;64.93
52032;BME280;38044;45.148;39.604;2022-12-18T07:39:11;101771.97;;;10.52;66.16
52032;BME280;38044;45.148;39.604;2022-12-18T07:41:37;101794.53;;;10.46;66.65
52032;BME280;38044;45.148;39.604;2022-12-18T07:44:04;101771.47;;;10.18;67.70
52032;BME280;38044;45.148;39.604;2022-12-18T07:46:29;101763.75;;;9.89;68.17
52032;BME280;38044;45.148;39.604;2022-12-18T07:48:55;101811.91;;;10.01;68.75
52032;BME280;38044;45.148;39.604;2022-12-18T07:51:21;101810.13;;;10.11;69.24
52032;BME280;38044;45.148;39.604;2022-12-18T07:53:47;101639.63;;;9.44;68.77
52032;BME280;38044;45.148;39.604;2022-12-18T07:56:13;101722.44;;;10.37;68.04
52032;BME280;38044;45.148;39.604;2022-12-18T07:58:39;101652.06;;;9.98;67.28
52032;BME280;38044;45.148;39.604;2022-12-18T08:01:10;101798.84;;;10.99;67.86
52032;BME280;38044;45.148;39.604;2022-12-18T08:03:38;101658.25;;;10.51;67.53
52032;BME280;38044;45.148;39.604;2022-12-18T08:06:06;101803.63;;;12.11;65.57
52032;BME280;38044;45.148;39.604;2022-12-18T08:08:33;101808.16;;;12.52;64.29
52032;BME280;38044;45.148;39.604;2022-12-18T08:11:00;101791.41;;;12.65;63.83
52032;BME280;38044;45.148;39.604;2022-12-18T08:13:26;101789.66;;;13.00;63.27
52032;BME280;38044;45.148;39.604;2022-12-18T08:16:00;101790.66;;;13.59;62.12
52032;BME280;38044;45.148;39.604;2022-12-18T08:18:26;101675.09;;;13.16;61.05
52032;BME280;38044;45.148;39.604;2022-12-18T08:20:52;101796.44;;;14.15;60.36
52032;BME280;38044;45.148;39.604;2022-12-18T08:23:18;101766.88;;;14.24;60.72
52032;BME280;38044;45.148;39.604;2022-12-18T08:25:44;101669.34;;;14.15;59.47
52032;BME280;38044;45.148;39.604;2022-12-18T08:28:10;101749.47;;;15.40;57.16
52032;BME280;38044;45.148;39.604;2022-12-18T08:30:36;101757.75;;;16.01;56.13
52032;BME280;38044;45.148;39.604;2022-12-18T08:33:02;101749.72;;;16.51;55.23
52032;BME280;38044;45.148;39.604;2022-12-18T08:35:28;101779.97;;;17.13;54.75
52032;BME280;38044;45.148;39.604;2022-12-18T08:37:54;101688.19;;;16.87;54.04
52032;BME280;38044;45.148;39.604;2022-12-18T08:40:20;101791.44;;;18.14;53.34
52032;BME280;38044;45.148;39.604;2022-12-18T08:42:45;101654.56;;;17.73;52.01
52032;BME280;38044;45.148;39.604;2022-12-18T08:45:29;101751.22;;;18.42;52.08
52032;BME280;38044;45.148;39.604;2022-12-18T08:47:55;101778.34;;;19.04;51.17
52032;BME280;38044;45.148;39.604;2022-12-18T08:50:21;101660.03;;;19.05;50.33
52032;BME280;38044;45.148;39.604;2022-12-18T08:52:47;101698.31;;;19.70;49.35
52032;BME280;38044;45.148;39.604;2022-12-18T08:55:13;101754.50;;;20.18;48.48
52032;BME280;38044;45.148;39.604;2022-12-18T08:57:38;101758.25;;;19.96;49.07
52032;BME280;38044;45.148;39.604;2022-12-18T09:00:05;101757.66;;;19.64;49.34
52032;BME280;38044;45.148;39.604;2022-12-18T09:02:31;101724.16;;;19.46;49.92
52032;BME280;38044;45.148;39.604;2022-12-18T09:04:56;101754.31;;;19.24;49.78
52032;BME280;38044;45.148;39.604;2022-12-18T09:07:22;101754.63;;;19.22;50.12
52032;BME280;38044;45.148;39.604;2022-12-18T09:09:48;101747.56;;;19.12;50.92
52032;BME280;38044;45.148;39.604;2022-12-18T09:12:14;101712.06;;;18.60;51.83
52032;BME280;38044;45.148;39.604;2022-12-18T09:14:40;101641.59;;;17.70;52.45
52032;BME280;38044;45.148;39.604;2022-12-18T09:17:06;101744.22;;;18.10;52.77
52032;BME280;38044;45.148;39.604;2022-12-18T09:19:31;101770.13;;;18.07;52.74
52032;BME280;38044;45.148;39.604;2022-12-18T09:21:57;101762.84;;;17.94;52.48
52032;BME280;38044;45.148;39.604;2022-12-18T09:24:23;101634.75;;;17.19;52.60
52032;BME280;38044;45.148;39.604;2022-12-18T09:26:53;101737.53;;;17.85;52.87
52032;BME280;38044;45.148;39.604;2022-12-18T09:29:20;101753.25;;;17.74;53.28
52032;BME280;38044;45.148;39.604;2022-12-18T09:31:46;101717.75;;;17.48;53.63
52032;BME280;38044;45.148;39.604;2022-12-18T09:34:12;101766.13;;;17.82;54.59
52032;BME280;38044;45.148;39.604;2022-12-18T09:36:38;101757.63;;;17.97;54.55
52032;BME280;38044;45.148;39.604;2022-12-18T09:39:05;101738.78;;;18.10;53.44
52032;BME280;38044;45.148;39.604;2022-12-18T09:41:44;101744.19;;;18.41;53.29
52032;BME280;38044;45.148;39.604;2022-12-18T09:44:16;101721.28;;;18.02;53.17
52032;BME280;38044;45.148;39.604;2022-12-18T09:49:22;101630.56;;;17.13;52.26
52032;BME280;38044;45.148;39.604;2022-12-18T09:54:39;101736.66;;;17.98;52.87
52032;BME280;38044;45.148;39.604;2022-12-18T09:57:05;101761.09;;;17.89;52.90
52032;BME280;38044;45.148;39.604;2022-12-18T09:59:37;101646.72;;;17.41;53.65
52032;BME280;38044;45.148;39.604;2022-12-18T10:02:31;101750.19;;;18.20;52.84
52032;BME280;38044;45.148;39.604;2022-12-18T10:05:12;101732.81;;;17.99;53.96
52032;BME280;38044;45.148;39.604;2022-12-18T10:07:49;101618.81;;;17.26;52.88
52032;BME280;38044;45.148;39.604;2022-12-18T10:10:34;101733.25;;;18.23;53.68
52032;BME280;38044;45.148;39.604;2022-12-18T10:16:16;101731.84;;;18.92;53.28
52032;BME280;38044;45.148;39.604;2022-12-18T10:19:04;101729.28;;;19.04;53.09
52032;BME280;38044;45.148;39.604;2022-12-18T10:27:29;101691.69;;;18.49;53.37
52032;BME280;38044;45.148;39.604;2022-12-18T10:29:57;101619.84;;;18.10;52.96
52032;BME280;38044;45.148;39.604;2022-12-18T10:32:28;101721.53;;;18.72;51.92
52032;BME280;38044;45.148;39.604;2022-12-18T10:34:56;101707.63;;;18.24;52.08
52032;BME280;38044;45.148;39.604;2022-12-18T10:37:25;101688.94;;;17.69;52.43
52032;BME280;38044;45.148;39.604;2022-12-18T10:40:11;101578.19;;;16.76;54.22
52032;BME280;38044;45.148;39.604;2022-12-18T10:42:37;101726.78;;;17.34;54.63
52032;BME280;38044;45.148;39.604;2022-12-18T10:45:10;101728.13;;;17.23;55.04
52032;BME280;38044;45.148;39.604;2022-12-18T10:47:44;101716.31;;;17.05;56.65
52032;BME280;38044;45.148;39.604;2022-12-18T10:50:37;101737.38;;;17.22;56.51
52032;BME280;38044;45.148;39.604;2022-12-18T10:53:04;101704.09;;;16.66;57.53
52032;BME280;38044;45.148;39.604;2022-12-18T10:55:38;101732.31;;;16.93;57.15
52032;BME280;38044;45.148;39.604;2022-12-18T11:08:32;101685.59;;;15.53;57.48
52032;BME280;38044;45.148;39.604;2022-12-18T11:10:58;101620.00;;;15.04;57.71
52032;BME280;38044;45.148;39.604;2022-12-18T11:13:26;101708.47;;;15.47;58.18
52032;BME280;38044;45.148;39.604;2022-12-18T11:15:53;101752.97;;;15.60;57.75
52032;BME280;38044;45.148;39.604;2022-12-18T11:18:27;101714.75;;;15.42;58.18
52032;BME280;38044;45.148;39.604;2022-12-18T11:20:58;101590.66;;;14.60;57.41
52032;BME280;38044;45.148;39.604;2022-12-18T11:23:26;101746.00;;;15.53;57.38
52032;BME280;38044;45.148;39.604;2022-12-18T11:29:36;101693.06;;;15.09;57.00
52032;BME280;38044;45.148;39.604;2022-12-18T11:31:30;101758.28;;;15.32;57.44
52032;BME280;38044;45.148;39.604;2022-12-18T11:34:23;101764.56;;;15.46;58.91
52032;BME280;38044;45.148;39.604;2022-12-18T11:36:52;101742.53;;;15.15;60.67
52032;BME280;38044;45.148;39.604;2022-12-18T11:42:03;101763.75;;;15.08;63.72
52032;BME280;38044;45.148;39.604;2022-12-18T11:44:58;101787.72;;;15.20;64.54
52032;BME280;38044;45.148;39.604;2022-12-18T11:47:47;101704.69;;;14.48;65.64
52032;BME280;38044;45.148;39.604;2022-12-18T11:50:32;101772.72;;;14.84;66.46
52032;BME280;38044;45.148;39.604;2022-12-18T11:53:00;101794.69;;;14.83;66.52
52032;BME280;38044;45.148;39.604;2022-12-18T11:58:33;101790.50;;;14.91;67.15
52032;BME280;38044;45.148;39.604;2022-12-18T12:01:35;101794.69;;;14.83;67.35
52032;BME280;38044;45.148;39.604;2022-12-18T12:05:06;101768.44;;;14.59;67.17
52032;BME280;38044;45.148;39.604;2022-12-18T12:15:34;101808.31;;;14.19;68.99
52032;BME280;38044;45.148;39.604;2022-12-18T12:22:03;101817.69;;;13.98;70.50
52032;BME280;38044;45.148;39.604;2022-12-18T12:24:21;101812.38;;;13.88;70.96
52032;BME280;38044;45.148;39.604;2022-12-18T12:27:20;101816.22;;;13.77;72.22
52032;BME280;38044;45.148;39.604;2022-12-18T12:30:03;101798.63;;;13.45;73.12
52032;BME280;38044;45.148;39.604;2022-12-18T12:40:31;101823.63;;;13.01;75.17
52032;BME280;38044;45.148;39.604;2022-12-18T12:43:03;101783.56;;;12.63;75.48
52032;BME280;38044;45.148;39.604;2022-12-18T12:45:53;101860.88;;;13.09;75.81
52032;BME280;38044;45.148;39.604;2022-12-18T12:48:52;101872.72;;;13.13;76.59
52032;BME280;38044;45.148;39.604;2022-12-18T12:51:32;101869.78;;;13.04;76.71
52032;BME280;38044;45.148;39.604;2022-12-18T12:54:00;101837.75;;;12.77;77.29
52032;BME280;38044;45.148;39.604;2022-12-18T12:56:43;101849.06;;;12.84;78.20
52032;BME280;38044;45.148;39.604;2022-12-18T13:01:57;101877.63;;;12.96;78.87
52032;BME280;38044;45.148;39.604;2022-12-18T13:04:56;101848.00;;;12.75;79.61
52032;BME280;38044;45.148;39.604;2022-12-18T13:07:37;101779.06;;;12.23;79.36
52032;BME280;38044;45.148;39.604;2022-12-18T13:10:25;101776.13;;;12.20;80.20
52032;BME280;38044;45.148;39.604;2022-12-18T13:13:00;101854.50;;;12.64;80.65
52032;BME280;38044;45.148;39.604;2022-12-18T13:15:41;101847.50;;;12.58;81.04
52032;BME280;38044;45.148;39.604;2022-12-18T13:23:29;101789.06;;;12.12;82.26
52032;BME280;38044;45.148;39.604;2022-12-18T13:34:24;101885.28;;;12.58;82.86
52032;BME280;38044;45.148;39.604;2022-12-18T13:36:51;101871.28;;;12.40;82.23
52032;BME280;38044;45.148;39.604;2022-12-18T13:41:45;101858.88;;;12.09;83.19
52032;BME280;38044;45.148;39.604;2022-12-18T13:44:38;101805.47;;;11.80;83.68
52032;BME280;38044;45.148;39.604;2022-12-18T13:47:36;101894.19;;;12.43;83.48
52032;BME280;38044;45.148;39.604;2022-12-18T13:50:37;101898.78;;;12.37;83.56
52032;BME280;38044;45.148;39.604;2022-12-18T13:53:05;101890.41;;;12.03;83.64
52032;BME280;38044;45.148;39.604;2022-12-18T13:55:32;101855.88;;;11.85;83.75
52032;BME280;38044;45.148;39.604;2022-12-18T13:58:05;101894.16;;;12.07;84.49
52032;BME280;38044;45.148;39.604;2022-12-18T14:00:31;101849.38;;;11.65;84.04
52032;BME280;38044;45.148;39.604;2022-12-18T14:02:58;101894.16;;;11.92;84.26
52032;BME280;38044;45.148;39.604;2022-12-18T14:05:32;101827.53;;;11.52;84.67
52032;BME280;38044;45.148;39.604;2022-12-18T14:08:16;101863.66;;;11.71;84.88
52032;BME280;38044;45.148;39.604;2022-12-18T14:10:44;101926.50;;;11.97;85.04
52032;BME280;38044;45.148;39.604;2022-12-18T14:15:47;101912.44;;;11.85;85.22
52032;BME280;38044;45.148;39.604;2022-12-18T14:18:21;101948.09;;;12.02;84.93
52032;BME280;38044;45.148;39.604;2022-12-18T14:20:54;101909.75;;;11.80;84.84
52032;BME280;38044;45.148;39.604;2022-12-18T14:24:12;101919.75;;;11.89;84.86
52032;BME280;38044;45.148;39.604;2022-12-18T14:26:40;101961.78;;;11.85;84.28
52032;BME280;38044;45.148;39.604;2022-12-18T14:29:28;101981.75;;;11.94;84.45
52032;BME280;38044;45.148;39.604;2022-12-18T14:34:31;101968.34;;;11.52;84.38
52032;BME280;38044;45.148;39.604;2022-12-18T14:36:56;101882.19;;;10.89;84.47
52032;BME280;38044;45.148;39.604;2022-12-18T14:39:22;101949.63;;;11.20;84.33
52032;BME280;38044;45.148;39.604;2022-12-18T14:41:51;101970.72;;;11.33;84.05
52032;BME280;38044;45.148;39.604;2022-12-18T14:44:18;101983.09;;;11.34;83.83
52032;BME280;38044;45.148;39.604;2022-12-18T14:46:45;101902.06;;;10.83;83.78
52032;BME280;38044;45.148;39.604;2022-12-18T14:49:30;102012.78;;;11.49;84.03
52032;BME280;38044;45.148;39.604;2022-12-18T14:52:02;101929.19;;;10.81;83.74
52032;BME280;38044;45.148;39.604;2022-12-18T14:54:29;101885.66;;;10.42;83.46